Linhe, China
Current Conditions -  °F | °C
As of 10:00 PM on Friday 28 Nov 2014 (Local Time) from ZBHH Reporting Station
Clear Clear  
Wind Chill: 23°   Ceiling: Unl
Heat Index: 23°   Visibility: 4mi
Dew Point: 19°   Wind: 2mph
Humidity: 86%   Direction: 20°NNE
Pressure: 30"   Gusts: NA
Location:  40.83°N, 107.5°E
Report Text: ZBHH 281400Z 02001MPS 7000 NSC M05/M07 Q1016 NOSIG
Loading
Personal Weather Stations






























Interactive Weather Map New forecast layout! Learn more

10-Day Weather Forecast

Advertisements
Track Severe Weather on mobile